Terminal Aerodrome Forecast
Issued by NWS

Home | Current Version | Previous Version | Text Only | Print | Product List | Glossary On
Versions: 1 2 3 4 5 6 7 8 9 10 11 12 13 14 15 16 17
000
FTUS46 KSEW 261600 AAB
TAFBLI
TAF AMD
KBLI 261658Z 2617/2712 VRB03KT 3SM BR BKN001
      TEMPO 2617/2619 1/2SM FG VV001
     FM262000 16006KT P6SM BKN200=

USA.gov is the U.S. government's official web portal to all federal, state and local government web resources and services.